createdAt,value
2019-02-10T00:01:17.741Z,74.00
2019-02-10T00:04:22.833Z,74.10
2019-02-10T00:07:27.818Z,73.80
2019-02-10T00:10:32.907Z,73.70
2019-02-10T00:13:39.196Z,73.40
2019-02-10T00:16:44.156Z,73.30
2019-02-10T00:19:52.410Z,73.00
2019-02-10T00:22:57.524Z,73.70
2019-02-10T00:26:02.520Z,73.20
2019-02-10T00:29:07.654Z,73.70
2019-02-10T00:32:12.606Z,73.50
2019-02-10T00:35:17.734Z,73.30
2019-02-10T00:38:22.706Z,73.20
2019-02-10T00:41:27.712Z,73.40
2019-02-10T00:44:32.671Z,73.50
2019-02-10T00:47:37.583Z,73.50
2019-02-10T00:50:42.798Z,73.50
2019-02-10T00:53:47.643Z,73.80
2019-02-10T00:56:52.725Z,73.70
2019-02-10T00:59:57.686Z,73.50
2019-02-10T01:03:02.701Z,74.10
2019-02-10T01:06:07.654Z,72.90
2019-02-10T01:09:12.648Z,72.60
2019-02-10T01:12:17.791Z,72.70
2019-02-10T01:15:22.954Z,72.90
2019-02-10T01:18:27.977Z,72.90
2019-02-10T01:21:32.901Z,72.90
2019-02-10T01:24:37.940Z,73.10
2019-02-10T01:27:43.106Z,73.40
2019-02-10T01:30:48.117Z,73.70
2019-02-10T01:33:53.358Z,74.10
2019-02-10T01:36:58.288Z,74.30
2019-02-10T01:40:03.502Z,74.10
2019-02-10T01:43:08.572Z,74.20
2019-02-10T01:46:13.443Z,73.80
2019-02-10T01:49:18.372Z,74.10
2019-02-10T01:52:23.441Z,74.00
2019-02-10T01:55:28.746Z,74.30
2019-02-10T01:58:33.697Z,74.60
2019-02-10T02:01:38.776Z,74.70
2019-02-10T02:04:43.792Z,74.70
2019-02-10T02:07:48.935Z,74.80
2019-02-10T02:10:53.928Z,74.80
2019-02-10T02:13:59.186Z,74.80
2019-02-10T02:17:04.118Z,74.90
2019-02-10T02:20:10.532Z,75.00
2019-02-10T02:23:15.517Z,75.00
2019-02-10T02:26:21.141Z,74.90
2019-02-10T02:29:26.002Z,74.90
2019-02-10T02:32:31.054Z,74.90
2019-02-10T02:35:36.001Z,74.70
2019-02-10T02:38:40.868Z,74.50
2019-02-10T02:41:45.765Z,74.90
2019-02-10T02:44:50.782Z,75.00
2019-02-10T02:47:55.637Z,74.90
2019-02-10T02:51:01.073Z,75.30
2019-02-10T02:54:05.781Z,75.80
2019-02-10T02:57:10.828Z,76.10
2019-02-10T03:00:15.530Z,76.30
2019-02-10T03:03:20.370Z,76.00
2019-02-10T03:06:27.092Z,75.70
2019-02-10T03:09:32.166Z,75.80
2019-02-10T03:12:37.251Z,75.50
2019-02-10T03:15:42.340Z,75.60
2019-02-10T03:18:53.271Z,75.80
2019-02-10T03:21:56.192Z,75.80
2019-02-10T03:25:01.293Z,75.70
2019-02-10T03:28:06.225Z,75.80
2019-02-10T03:31:11.305Z,75.60
2019-02-10T03:34:16.252Z,75.70
2019-02-10T03:37:26.862Z,75.60
2019-02-10T03:40:27.767Z,76.10
2019-02-10T03:43:32.744Z,76.40
2019-02-10T03:46:37.705Z,76.70
2019-02-10T03:49:42.878Z,76.90
2019-02-10T03:52:49.761Z,77.10
2019-02-10T03:55:54.815Z,77.30
2019-02-10T03:59:00.008Z,77.40
2019-02-10T04:02:05.564Z,77.60
2019-02-10T04:05:10.861Z,77.90
2019-02-10T04:08:16.012Z,78.10
2019-02-10T04:11:21.098Z,78.20
2019-02-10T04:14:26.082Z,78.30
2019-02-10T04:17:31.161Z,78.70
2019-02-10T04:20:36.131Z,78.60
2019-02-10T04:23:41.243Z,78.80
2019-02-10T04:26:46.223Z,78.80
2019-02-10T04:29:51.189Z,78.50
2019-02-10T04:32:56.288Z,79.00
2019-02-10T04:36:01.428Z,79.40
2019-02-10T04:39:06.794Z,79.50
2019-02-10T04:42:11.963Z,79.40
2019-02-10T04:45:17.096Z,79.40
2019-02-10T04:48:22.192Z,79.60
2019-02-10T04:51:27.353Z,79.40
2019-02-10T04:54:32.270Z,79.60
2019-02-10T04:57:37.166Z,79.20
2019-02-10T05:00:42.115Z,78.90
2019-02-10T05:03:47.011Z,78.70
2019-02-10T05:06:51.954Z,78.50
2019-02-10T05:09:57.035Z,78.40
2019-02-10T05:13:02.010Z,78.20
2019-02-10T05:16:06.937Z,78.10
2019-02-10T05:19:11.905Z,77.90
2019-02-10T05:22:16.932Z,77.90
2019-02-10T05:25:22.052Z,77.70
2019-02-10T05:28:27.002Z,77.80
2019-02-10T05:31:31.833Z,78.50
2019-02-10T05:34:36.759Z,78.50
2019-02-10T05:37:41.823Z,78.80
2019-02-10T05:40:46.921Z,78.40
2019-02-10T05:43:52.024Z,78.40
2019-02-10T05:46:57.216Z,78.40
2019-02-10T05:50:02.189Z,78.20
2019-02-10T05:53:07.310Z,77.80
2019-02-10T05:56:12.569Z,77.80
2019-02-10T05:59:17.702Z,78.20
2019-02-10T06:02:32.874Z,78.40
2019-02-10T06:05:37.716Z,78.40
2019-02-10T06:08:42.662Z,78.60
2019-02-10T06:11:47.674Z,78.90
2019-02-10T06:14:52.834Z,79.10
2019-02-10T06:17:57.928Z,79.40
2019-02-10T06:21:02.821Z,79.10
2019-02-10T06:24:07.738Z,79.20
2019-02-10T06:27:12.869Z,78.90
2019-02-10T06:30:18.090Z,78.40
2019-02-10T06:33:23.049Z,78.20
2019-02-10T06:36:27.885Z,77.90
2019-02-10T06:39:32.855Z,77.60
2019-02-10T06:42:37.767Z,77.60
2019-02-10T06:45:42.913Z,77.30
2019-02-10T06:48:48.137Z,77.40
2019-02-10T06:51:53.218Z,77.40
2019-02-10T06:54:58.220Z,77.30
2019-02-10T06:58:03.328Z,77.70
2019-02-10T07:01:20.352Z,78.00
2019-02-10T07:04:30.464Z,77.50
2019-02-10T07:07:35.288Z,77.80
2019-02-10T07:10:40.217Z,76.80
2019-02-10T07:13:47.817Z,76.80
2019-02-10T07:17:11.676Z,76.40
2019-02-10T07:20:41.310Z,75.60
2019-02-10T07:24:37.545Z,75.50
2019-02-10T07:27:42.679Z,75.60
2019-02-10T07:30:50.624Z,74.70
2019-02-10T07:34:35.013Z,74.90
2019-02-10T07:37:51.113Z,74.50
2019-02-10T07:41:27.195Z,73.70
2019-02-10T07:45:01.120Z,73.20
2019-02-10T07:48:39.256Z,73.50
2019-02-10T07:52:20.059Z,71.50
2019-02-10T07:56:01.945Z,70.80
2019-02-10T07:59:37.829Z,70.30
2019-02-10T08:03:28.788Z,70.10
2019-02-10T08:07:14.827Z,69.50
2019-02-10T08:11:06.828Z,68.40
2019-02-10T08:14:55.266Z,67.60
2019-02-10T08:18:31.577Z,67.60
2019-02-10T08:22:12.242Z,66.60
2019-02-10T08:25:33.061Z,66.00
2019-02-10T08:29:07.693Z,65.50
2019-02-10T08:33:15.092Z,65.20
2019-02-10T08:37:03.254Z,64.70
2019-02-10T08:40:41.391Z,64.60
2019-02-10T08:44:21.376Z,65.90
2019-02-10T08:47:52.253Z,64.70
2019-02-10T08:51:49.848Z,63.00
2019-02-10T08:54:55.337Z,63.00
2019-02-10T08:58:00.274Z,62.60
2019-02-10T09:01:05.400Z,63.00
2019-02-10T09:04:10.736Z,62.20
2019-02-10T09:07:15.759Z,61.90
2019-02-10T09:10:21.071Z,61.40
2019-02-10T09:13:26.345Z,60.80
2019-02-10T09:16:31.393Z,60.10
2019-02-10T09:19:36.266Z,59.20
2019-02-10T09:22:41.337Z,58.30
2019-02-10T09:25:46.492Z,56.70
2019-02-10T09:28:51.770Z,55.40
2019-02-10T09:31:56.656Z,54.50
2019-02-10T09:35:01.591Z,54.40
2019-02-10T09:38:06.596Z,51.60
2019-02-10T09:41:11.727Z,50.20
2019-02-10T09:44:16.642Z,49.40
2019-02-10T09:47:21.692Z,50.30
2019-02-10T09:50:26.704Z,50.30
2019-02-10T09:53:31.773Z,49.80
2019-02-10T09:56:36.819Z,48.70
2019-02-10T09:59:41.947Z,45.40
2019-02-10T10:02:46.865Z,42.70
2019-02-10T10:05:52.065Z,40.50
2019-02-10T10:08:57.078Z,39.80
2019-02-10T10:12:02.174Z,42.70
2019-02-10T10:15:08.438Z,44.60
2019-02-10T10:18:13.613Z,47.50
2019-02-10T10:21:18.660Z,50.30
2019-02-10T10:24:23.630Z,52.50
2019-02-10T10:27:28.712Z,53.30
2019-02-10T10:30:33.776Z,54.20
2019-02-10T10:33:39.363Z,54.40
2019-02-10T10:36:44.480Z,54.60
2019-02-10T10:39:50.049Z,54.70
2019-02-10T10:42:54.828Z,54.00
2019-02-10T10:46:00.753Z,52.20
2019-02-10T10:49:05.693Z,47.50
2019-02-10T10:52:10.896Z,41.60
2019-02-10T10:55:16.225Z,34.80
2019-02-10T10:58:21.172Z,30.80
2019-02-10T11:01:27.809Z,27.40
2019-02-10T11:04:32.824Z,26.10
2019-02-10T11:07:37.875Z,24.10
2019-02-10T11:10:42.932Z,21.30
2019-02-10T11:13:48.118Z,19.90
2019-02-10T11:16:53.035Z,18.30
2019-02-10T11:19:57.988Z,17.00
2019-02-10T11:23:02.949Z,16.60
2019-02-10T11:26:07.882Z,16.30
2019-02-10T11:29:12.708Z,15.60
2019-02-10T11:32:17.670Z,15.00
2019-02-10T11:35:22.643Z,15.00
2019-02-10T11:38:27.599Z,15.40
2019-02-10T11:41:32.881Z,14.80
2019-02-10T11:44:37.978Z,14.00
2019-02-10T11:47:43.236Z,14.20
2019-02-10T11:50:48.368Z,13.90
2019-02-10T11:54:02.386Z,13.60
2019-02-10T11:57:07.397Z,13.70
2019-02-10T12:00:13.175Z,14.60
2019-02-10T12:03:18.342Z,15.50
2019-02-10T12:06:23.318Z,15.90
2019-02-10T12:09:28.350Z,18.20
2019-02-10T12:12:33.362Z,20.10
2019-02-10T12:15:38.342Z,22.40
2019-02-10T12:18:43.396Z,23.40
2019-02-10T12:21:48.381Z,24.70
2019-02-10T12:24:53.386Z,26.00
2019-02-10T12:27:58.512Z,27.40
2019-02-10T12:31:03.473Z,28.80
2019-02-10T12:34:08.861Z,30.50
2019-02-10T12:37:13.882Z,32.10
2019-02-10T12:40:18.839Z,33.60
2019-02-10T12:43:23.935Z,35.60
2019-02-10T12:46:29.060Z,36.30
2019-02-10T12:49:34.052Z,37.30
2019-02-10T12:52:39.171Z,38.00
2019-02-10T12:55:44.258Z,39.20
2019-02-10T12:58:49.447Z,40.00
2019-02-10T13:02:13.256Z,40.60
2019-02-10T13:05:18.317Z,40.90
2019-02-10T13:08:23.315Z,41.30
2019-02-10T13:11:28.340Z,41.90
2019-02-10T13:14:33.454Z,42.30
2019-02-10T13:17:38.663Z,42.30
2019-02-10T13:20:43.898Z,42.30
2019-02-10T13:23:48.869Z,42.20
2019-02-10T13:26:53.792Z,41.80
2019-02-10T13:30:01.281Z,42.40
2019-02-10T13:33:06.273Z,42.50
2019-02-10T13:36:11.253Z,42.70
2019-02-10T13:39:16.984Z,43.10
2019-02-10T13:42:21.951Z,42.80
2019-02-10T13:45:26.983Z,39.50
2019-02-10T13:48:32.226Z,36.10
2019-02-10T13:51:37.195Z,35.90
2019-02-10T13:54:42.308Z,37.00
2019-02-10T13:57:47.136Z,38.40
2019-02-10T14:00:52.116Z,39.70
2019-02-10T14:03:57.059Z,40.60
2019-02-10T14:07:02.100Z,41.80
2019-02-10T14:10:07.619Z,42.70
2019-02-10T14:13:12.701Z,43.60
2019-02-10T14:16:18.116Z,44.80
2019-02-10T14:19:23.224Z,46.40
2019-02-10T14:22:28.367Z,46.80
2019-02-10T14:25:33.378Z,47.70
2019-02-10T14:28:38.655Z,48.60
2019-02-10T14:31:43.677Z,49.00
2019-02-10T14:34:48.930Z,49.70
2019-02-10T14:37:54.042Z,49.70
2019-02-10T14:40:58.961Z,50.30
2019-02-10T14:44:04.040Z,50.50
2019-02-10T14:47:09.122Z,50.40
2019-02-10T14:50:14.965Z,50.60
2019-02-10T14:53:19.977Z,51.10
2019-02-10T14:56:25.061Z,51.60
2019-02-10T14:59:30.029Z,52.50
2019-02-10T15:02:35.089Z,53.40
2019-02-10T15:05:40.353Z,54.00
2019-02-10T15:08:45.670Z,54.10
2019-02-10T15:11:50.719Z,54.50
2019-02-10T15:14:55.984Z,54.90
2019-02-10T15:18:00.982Z,55.50
2019-02-10T15:21:05.991Z,55.70
2019-02-10T15:24:11.139Z,55.60
2019-02-10T15:27:16.136Z,55.90
2019-02-10T15:30:21.105Z,56.40
2019-02-10T15:33:26.220Z,56.60
2019-02-10T15:36:31.271Z,57.00
2019-02-10T15:39:36.539Z,57.40
2019-02-10T15:42:41.687Z,58.00
2019-02-10T15:45:46.741Z,58.60
2019-02-10T15:48:51.922Z,59.20
2019-02-10T15:51:56.819Z,59.70
2019-02-10T15:55:01.775Z,60.00
2019-02-10T15:58:06.853Z,60.60
2019-02-10T16:01:12.605Z,61.00
2019-02-10T16:04:17.607Z,60.10
2019-02-10T16:07:22.588Z,60.80
2019-02-10T16:10:27.682Z,60.70
2019-02-10T16:13:32.653Z,61.50
2019-02-10T16:16:37.574Z,60.50
2019-02-10T16:19:42.583Z,60.40
2019-02-10T16:22:47.657Z,60.80
2019-02-10T16:25:52.554Z,60.80
2019-02-10T16:28:57.482Z,61.10
2019-02-10T16:32:02.524Z,61.20
2019-02-10T16:35:07.895Z,61.40
2019-02-10T16:38:13.073Z,62.20
2019-02-10T16:41:18.301Z,62.80
2019-02-10T16:44:23.277Z,63.80
2019-02-10T16:47:28.314Z,65.50
2019-02-10T16:50:33.308Z,66.20
2019-02-10T16:53:38.253Z,66.70
2019-02-10T16:56:43.635Z,67.00
2019-02-10T16:59:49.006Z,67.00
2019-02-10T17:02:54.161Z,66.70
2019-02-10T17:05:59.282Z,66.80
2019-02-10T17:09:05.538Z,66.90
2019-02-10T17:12:10.729Z,67.30
2019-02-10T17:15:15.981Z,67.60
2019-02-10T17:18:20.974Z,67.70
2019-02-10T17:21:26.255Z,67.90
2019-02-10T17:24:31.286Z,67.70
2019-02-10T17:27:36.499Z,67.50
2019-02-10T17:30:41.437Z,66.50
2019-02-10T17:33:46.379Z,66.30
2019-02-10T17:36:51.505Z,67.60
2019-02-10T17:39:56.734Z,67.60
2019-02-10T17:43:03.114Z,67.60
2019-02-10T17:46:08.309Z,67.50
2019-02-10T17:49:13.415Z,67.50
2019-02-10T17:52:18.422Z,67.90
2019-02-10T17:55:23.275Z,68.30
2019-02-10T17:58:28.276Z,68.80
2019-02-10T18:01:33.307Z,69.10
2019-02-10T18:04:38.997Z,69.00
2019-02-10T18:07:44.112Z,68.80
2019-02-10T18:10:49.445Z,68.40
2019-02-10T18:13:54.335Z,68.20
2019-02-10T18:17:18.208Z,67.80
2019-02-10T18:20:45.318Z,67.60
2019-02-10T18:24:12.074Z,67.40
2019-02-10T18:27:35.885Z,67.10
2019-02-10T18:31:02.631Z,67.10
2019-02-10T18:34:17.323Z,67.20
2019-02-10T18:37:39.187Z,67.30
2019-02-10T18:41:05.545Z,67.10
2019-02-10T18:44:28.842Z,66.10
2019-02-10T18:47:52.932Z,67.30
2019-02-10T18:51:19.832Z,67.60
2019-02-10T18:54:43.670Z,67.70
2019-02-10T18:58:04.594Z,67.80
2019-02-10T19:01:27.343Z,67.70
2019-02-10T19:04:54.274Z,68.00
2019-02-10T19:08:17.420Z,68.20
2019-02-10T19:11:38.660Z,68.20
2019-02-10T19:15:05.582Z,68.20
2019-02-10T19:18:16.777Z,68.10
2019-02-10T19:21:39.226Z,68.20
2019-02-10T19:25:00.563Z,68.20
2019-02-10T19:28:22.968Z,67.90
2019-02-10T19:31:40.086Z,67.80
2019-02-10T19:35:11.808Z,66.50
2019-02-10T19:38:41.669Z,66.30
2019-02-10T19:41:55.912Z,66.20
2019-02-10T19:45:24.704Z,66.20
2019-02-10T19:49:04.014Z,66.40
2019-02-10T19:52:33.970Z,66.40
2019-02-10T19:56:10.206Z,66.40
2019-02-10T19:59:24.707Z,67.80
2019-02-10T20:03:06.697Z,68.10
2019-02-10T20:06:39.415Z,68.30
2019-02-10T20:09:54.342Z,68.40
2019-02-10T20:13:18.381Z,68.70
2019-02-10T20:16:54.413Z,68.50
2019-02-10T20:20:29.110Z,69.00
2019-02-10T20:23:58.858Z,69.20
2019-02-10T20:27:25.657Z,69.50
2019-02-10T20:31:06.250Z,69.90
2019-02-10T20:34:30.522Z,69.90
2019-02-10T20:38:09.693Z,70.50
2019-02-10T20:41:20.948Z,70.60
2019-02-10T20:44:54.136Z,70.80
2019-02-10T20:48:17.929Z,70.80
2019-02-10T20:51:40.766Z,71.00
2019-02-10T20:55:10.871Z,71.20
2019-02-10T20:58:24.438Z,71.60
2019-02-10T21:01:36.192Z,71.50
2019-02-10T21:05:06.202Z,71.40
2019-02-10T21:08:39.056Z,71.60
2019-02-10T21:12:20.527Z,71.70
2019-02-10T21:15:52.497Z,71.80
2019-02-10T21:19:08.220Z,71.90
2019-02-10T21:22:38.222Z,71.90
2019-02-10T21:26:00.865Z,71.90
2019-02-10T21:29:30.950Z,71.90
2019-02-10T21:32:53.612Z,71.80
2019-02-10T21:36:23.169Z,71.50
2019-02-10T21:39:49.000Z,71.30
2019-02-10T21:43:18.950Z,72.00
2019-02-10T21:46:37.827Z,71.10
2019-02-10T21:49:42.973Z,71.00
2019-02-10T21:52:48.001Z,70.90
2019-02-10T21:55:53.055Z,71.20
2019-02-10T21:58:57.983Z,71.60
2019-02-10T22:02:02.985Z,71.50
2019-02-10T22:05:08.240Z,71.90
2019-02-10T22:08:13.395Z,72.00
2019-02-10T22:11:18.360Z,71.80
2019-02-10T22:14:23.278Z,71.60
2019-02-10T22:17:28.216Z,71.50
2019-02-10T22:20:33.448Z,71.40
2019-02-10T22:23:38.446Z,71.40
2019-02-10T22:26:43.506Z,71.30
2019-02-10T22:29:48.815Z,71.30
2019-02-10T22:32:53.848Z,71.30
2019-02-10T22:35:59.110Z,71.20
2019-02-10T22:39:04.580Z,71.30
2019-02-10T22:42:09.593Z,71.30
2019-02-10T22:45:14.694Z,70.10
2019-02-10T22:48:19.952Z,69.90
2019-02-10T22:51:25.025Z,70.00
2019-02-10T22:54:29.988Z,71.10
2019-02-10T22:57:34.923Z,71.00
2019-02-10T23:00:48.456Z,71.00
2019-02-10T23:03:53.515Z,72.00
2019-02-10T23:06:58.543Z,73.40
2019-02-10T23:10:03.405Z,73.80
2019-02-10T23:13:08.337Z,75.20
2019-02-10T23:16:13.331Z,75.20
2019-02-10T23:19:19.852Z,75.70
2019-02-10T23:22:24.791Z,76.30
2019-02-10T23:25:29.773Z,76.50
2019-02-10T23:28:35.008Z,77.10
2019-02-10T23:31:40.088Z,77.00
2019-02-10T23:34:44.975Z,77.60
2019-02-10T23:37:49.684Z,78.20
2019-02-10T23:40:54.606Z,78.70
2019-02-10T23:43:59.509Z,79.50
2019-02-10T23:47:04.603Z,79.70
2019-02-10T23:50:09.648Z,79.80
2019-02-10T23:53:14.669Z,79.80
2019-02-10T23:56:19.696Z,81.30
2019-02-10T23:59:24.942Z,82.00
